GMTA/AHU METAR and TAF weather

Enter ICAO airport designator
Station Type Date Time Source
GMTA METAR 2019/12/14 11:00 UTC NOAA

GMTA 141100Z 34008KT 9999 SCT030 17/12 Q1021 NOSIG


Station Type Date Time Source
GMTA Decoded METAR 2019/12/14 11:00 UTC NOAA

Al Hoceima, Morocco (GMTA) 35-11N 003-51W 14M
Dec 14, 2019 - 06:00 AM EST / 2019.12.14 1100 UTC
Wind: from the NNW (340 degrees) at 9 MPH (8 KT):0
Visibility: greater than 7 mile(s):0
Sky conditions: partly cloudy
Temperature: 62 F (17 C)
Dew Point: 53 F (12 C)
Relative Humidity: 72%
Pressure (altimeter): 30.15 in. Hg (1021 hPa)
ob: GMTA 141100Z 34008KT 9999 SCT030 17/12 Q1021 NOSIG
cycle: 11

Station Type Date Time Source
GMTA TAF 2019/12/14 06:18 UTC NOAA

TAF GMTA 140500Z 1406/1512 VRB02KT CAVOK

Example: see airport list